Time;durP1;ratioP1;P1;durP2;ratioP2;P2;SDS_P1;SDS_P2;PMS_P1;PMS_P2;Temp;Humidity;BMP_temperature;BMP_pressure;BME280_temperature;BME280_humidity;BME280_pressure;Samples;Min_cycle;Max_cycle;Signal;HPM_P1;HPM_P2
2023/10/05 00:53:10;;;;;;;14.25;5.30;;;;;;;12.69;74.75;100948.84;6214244;22;20347;-90
2023/10/05 00:55:39;;;;;;;12.75;5.00;;;;;;;12.76;74.59;100943.88;6179704;23;20087;-91
2023/10/05 00:58:12;;;;;;;13.27;5.38;;;;;;;12.78;74.74;100942.81;6155042;23;20017;-90
2023/10/05 01:00:52;;;;;;;11.50;4.63;;;;;;;12.73;75.04;100938.81;6204079;23;20388;-93
2023/10/05 01:03:23;;;;;;;9.60;5.13;;;;;;;12.76;74.83;100935.91;6157742;23;20027;-91
2023/10/05 01:06:10;;;;;;;11.38;5.03;;;;;;;12.78;74.96;100933.97;6204055;23;20024;-92
2023/10/05 01:08:49;;;;;;;16.38;5.32;;;;;;;12.74;74.92;100928.00;6183618;23;20056;-91
2023/10/05 01:11:33;;;;;;;14.30;5.68;;;;;;;12.74;75.12;100916.50;6179707;23;20599;-92
2023/10/05 01:14:00;;;;;;;12.77;4.82;;;;;;;12.72;75.21;100923.78;6154662;23;20016;-92
2023/10/05 01:16:31;;;;;;;9.73;4.95;;;;;;;12.70;75.07;100909.75;6145082;23;20026;-90
2023/10/05 01:19:02;;;;;;;13.15;4.78;;;;;;;12.74;74.92;100913.84;6155364;23;20369;-91
2023/10/05 01:21:29;;;;;;;10.57;4.72;;;;;;;12.71;75.18;100912.28;6155159;23;20021;-89
2023/10/05 01:23:58;;;;;;;13.32;5.00;;;;;;;12.73;75.38;100926.31;6180679;23;20020;-91
2023/10/05 01:26:25;;;;;;;10.80;5.00;;;;;;;12.72;75.35;100911.31;6204385;23;20396;-92
2023/10/05 01:28:52;;;;;;;12.20;5.03;;;;;;;12.68;75.96;100907.19;6178821;23;20024;-90
2023/10/05 01:31:21;;;;;;;10.65;5.10;;;;;;;12.70;76.01;100904.41;6156191;23;20012;-91
2023/10/05 01:33:48;;;;;;;12.60;5.07;;;;;;;12.69;76.25;100905.38;6179709;23;20353;-90
2023/10/05 01:36:19;;;;;;;17.58;4.90;;;;;;;12.67;76.04;100916.19;6179724;23;20100;-91
2023/10/05 01:38:47;;;;;;;11.95;5.28;;;;;;;12.62;76.54;100909.50;6154695;23;20096;-90
2023/10/05 01:41:17;;;;;;;21.08;5.22;;;;;;;12.56;76.45;100918.81;6204112;23;20355;-92
2023/10/05 01:43:47;;;;;;;13.90;4.82;;;;;;;12.54;76.39;100920.75;6204196;23;20024;-91
2023/10/05 01:46:14;;;;;;;11.45;4.60;;;;;;;12.48;76.44;100897.28;6154694;23;20376;-91
2023/10/05 01:48:41;;;;;;;8.90;4.63;;;;;;;12.50;76.62;100895.34;6154294;23;20417;-90
2023/10/05 01:51:14;;;;;;;17.50;4.90;;;;;;;12.49;76.54;100907.81;6179110;23;20020;-90
2023/10/05 01:53:43;;;;;;;;;;;;;;;12.30;76.57;100916.41;6156761;23;20032;-89
2023/10/05 01:56:17;;;;;;;10.35;4.10;;;;;;;12.43;75.15;100915.44;6179560;23;19920;-91
2023/10/05 01:58:50;;;;;;;8.95;3.60;;;;;;;12.44;74.95;100904.69;6156081;23;20023;-90
2023/10/05 02:01:20;;;;;;;15.38;4.78;;;;;;;12.43;75.08;100908.28;6131388;23;20024;-90
2023/10/05 02:03:54;;;;;;;10.45;4.72;;;;;;;12.45;74.55;100905.53;6154797;23;20043;-90
2023/10/05 02:06:21;;;;;;;9.52;4.13;;;;;;;12.43;74.61;100908.28;6179680;23;20028;-91
2023/10/05 02:08:48;;;;;;;12.93;4.72;;;;;;;12.43;74.92;100902.13;6178264;23;20040;-91
2023/10/05 02:11:23;;;;;;;12.57;4.82;;;;;;;12.41;74.24;100902.25;6129760;23;20012;-91
2023/10/05 02:13:52;;;;;;;12.00;5.03;;;;;;;12.37;74.67;100906.97;6153266;23;20021;-91
2023/10/05 02:16:21;;;;;;;11.00;4.93;;;;;;;12.37;75.11;100895.47;6204636;23;20119;-92
2023/10/05 02:18:49;;;;;;;11.70;5.40;;;;;;;12.37;75.37;100892.81;6179773;23;20091;-91
2023/10/05 02:21:29;;;;;;;9.32;4.35;;;;;;;12.40;75.23;100900.56;6130041;23;20016;-91
2023/10/05 02:23:58;;;;;;;11.02;4.65;;;;;;;12.37;75.47;100892.81;6132599;23;20386;-92
2023/10/05 02:26:33;;;;;;;14.43;4.90;;;;;;;12.37;75.75;100908.78;6155153;23;20025;-91
2023/10/05 02:29:13;;;;;;;13.93;5.10;;;;;;;12.37;75.67;100908.78;6156518;23;20021;-91
2023/10/05 02:31:56;;;;;;;14.32;4.72;;;;;;;12.40;75.83;100902.38;6203468;23;20463;-90
2023/10/05 02:34:24;;;;;;;11.30;4.55;;;;;;;12.37;75.67;100895.47;6179448;23;20105;-90
2023/10/05 02:36:54;;;;;;;13.10;4.95;;;;;;;12.34;76.17;100896.56;6178985;23;20028;-90
2023/10/05 02:39:24;;;;;;;10.50;5.20;;;;;;;12.30;75.86;100891.59;6158346;23;20028;-90
2023/10/05 02:41:51;;;;;;;13.30;5.20;;;;;;;12.28;75.89;100894.38;6156600;23;20028;-91
2023/10/05 02:44:22;;;;;;;17.98;5.20;;;;;;;12.25;75.92;100881.31;6156943;23;20051;-89
2023/10/05 02:46:49;;;;;;;16.85;5.05;;;;;;;12.26;75.85;100874.16;6167565;23;20413;-92
2023/10/05 02:49:18;;;;;;;14.18;5.43;;;;;;;12.25;75.86;100875.13;6181077;23;20048;-92
2023/10/05 02:51:46;;;;;;;10.48;4.63;;;;;;;12.24;76.03;100870.78;6206037;23;20024;-92
2023/10/05 02:54:14;;;;;;;18.02;5.03;;;;;;;12.24;76.23;100878.78;6132131;23;20050;-91
2023/10/05 02:56:41;;;;;;;20.15;5.90;;;;;;;12.19;76.12;100881.78;6180853;23;20095;-91
2023/10/05 02:59:14;;;;;;;12.52;4.88;;;;;;;12.19;76.37;100887.13;6156235;23;20025;-91
2023/10/05 03:01:45;;;;;;;10.10;4.78;;;;;;;12.21;76.35;100887.81;6155753;23;20039;-91
2023/10/05 03:06:48;;;;;;;10.00;4.72;;;;;;;12.18;76.57;100888.06;6180643;23;20051;-92
2023/10/05 03:09:17;;;;;;;14.57;5.15;;;;;;;12.15;76.42;100889.16;6156226;23;20517;-91
2023/10/05 03:11:48;;;;;;;10.50;4.50;;;;;;;12.15;76.72;100890.97;6154924;23;20020;-92
2023/10/05 03:14:18;;;;;;;16.15;5.50;;;;;;;12.06;76.76;100897.88;6132572;23;20029;-91
2023/10/05 03:16:56;;;;;;;12.52;4.63;;;;;;;12.08;76.71;100903.06;6156224;23;20032;-90
2023/10/05 03:19:23;;;;;;;14.02;5.93;;;;;;;12.11;76.85;100905.50;6157762;23;20078;-91
2023/10/05 03:21:57;;;;;;;12.48;5.00;;;;;;;12.07;76.99;100898.72;6194588;23;20051;-92
2023/10/05 03:24:25;;;;;;;12.23;4.72;;;;;;;12.09;76.73;100896.81;6157332;23;20024;-91
2023/10/05 03:26:52;;;;;;;12.38;5.60;;;;;;;12.10;76.14;100898.47;6155569;23;20020;-91
2023/10/05 03:29:21;;;;;;;13.05;4.65;;;;;;;12.09;75.87;100894.13;6131870;23;20028;-92
2023/10/05 03:31:53;;;;;;;15.45;4.80;;;;;;;12.05;75.91;100898.84;6121976;23;20063;-92
2023/10/05 03:34:27;;;;;;;12.02;4.88;;;;;;;12.01;75.79;100907.16;6132885;23;20083;-91
2023/10/05 03:36:55;;;;;;;12.07;4.85;;;;;;;12.03;75.70;100897.25;6158054;23;20071;-91
2023/10/05 03:39:23;;;;;;;11.93;4.90;;;;;;;12.03;75.44;100892.78;6132464;23;20047;-92
2023/10/05 03:41:50;;;;;;;9.30;4.50;;;;;;;12.08;75.66;100897.75;6206189;23;20843;-92
2023/10/05 03:44:17;;;;;;;11.55;5.53;;;;;;;12.05;75.95;100901.50;6202644;23;20374;-93
2023/10/05 03:46:49;;;;;;;11.88;4.35;;;;;;;12.05;75.92;100911.31;6155830;23;20013;-91
2023/10/05 03:49:17;;;;;;;8.52;4.15;;;;;;;12.04;75.84;100913.13;6155676;23;20131;-91
2023/10/05 03:51:49;;;;;;;9.43;3.92;;;;;;;11.99;74.32;100911.78;6155191;23;20048;-91
2023/10/05 03:54:26;;;;;;;10.13;4.15;;;;;;;11.99;74.34;100911.78;6133417;23;20032;-90
2023/10/05 03:57:30;;;;;;;12.90;4.45;;;;;;;12.01;74.83;100913.38;6155147;23;20399;-91
2023/10/05 03:59:46;;;;;;;11.63;4.70;;;;;;;12.00;75.14;100905.50;6158769;23;20059;-91
2023/10/05 04:02:17;;;;;;;9.75;4.97;;;;;;;11.99;75.87;100903.81;6180977;23;20042;-91
2023/10/05 04:04:44;;;;;;;12.90;5.13;;;;;;;11.98;75.79;100907.41;6156746;23;20020;-92
2023/10/05 04:07:12;;;;;;;9.45;4.15;;;;;;;12.01;75.41;100912.50;6155626;23;20029;-92
2023/10/05 04:09:39;;;;;;;17.17;5.30;;;;;;;12.04;75.00;100913.13;6180696;23;20017;-91
2023/10/05 04:12:10;;;;;;;9.45;4.38;;;;;;;11.99;74.79;100912.63;6205459;23;20020;-92
2023/10/05 04:14:38;;;;;;;10.85;5.20;;;;;;;12.00;74.63;100911.66;6204460;23;20360;-91
2023/10/05 04:17:11;;;;;;;9.48;4.47;;;;;;;12.04;74.50;100910.47;6180258;23;20028;-92
2023/10/05 04:19:41;;;;;;;9.88;4.25;;;;;;;11.99;74.86;100912.63;6180937;23;20352;-94
2023/10/05 04:22:08;;;;;;;11.25;4.35;;;;;;;11.98;74.76;100905.59;6179819;23;20048;-92
2023/10/05 04:24:35;;;;;;;16.85;4.75;;;;;;;11.95;74.82;100903.16;6178807;23;20099;-91
2023/10/05 04:27:04;;;;;;;13.50;4.88;;;;;;;11.92;75.10;100901.59;6204119;23;20426;-90
2023/10/05 04:29:31;;;;;;;14.15;5.15;;;;;;;11.96;75.11;100910.22;6179297;23;20040;-91
2023/10/05 04:31:58;;;;;;;9.13;5.07;;;;;;;11.95;75.25;100912.00;6155770;23;20075;-91
2023/10/05 04:34:30;;;;;;;8.43;4.55;;;;;;;11.93;75.42;100913.97;6131623;23;20078;-91
2023/10/05 04:36:58;;;;;;;10.55;4.45;;;;;;;11.93;75.52;100929.06;6154718;23;20393;-91
2023/10/05 04:39:29;;;;;;;8.23;4.05;;;;;;;11.93;75.41;100921.94;6180502;23;20404;-92
2023/10/05 04:42:10;;;;;;;12.50;4.95;;;;;;;11.91;75.28;100921.22;6154493;23;20025;-93
2023/10/05 04:44:38;;;;;;;12.35;4.43;;;;;;;11.89;75.28;100915.16;6154830;23;20088;-92
2023/10/05 04:47:05;;;;;;;10.45;4.22;;;;;;;11.85;75.29;100912.81;6180379;23;20024;-92
2023/10/05 04:49:35;;;;;;;7.07;4.15;;;;;;;11.86;74.35;100911.84;6155138;23;20024;-91
2023/10/05 04:52:06;;;;;;;10.13;4.22;;;;;;;11.81;73.87;100909.53;6180252;23;20020;-92
2023/10/05 04:54:38;;;;;;;10.95;4.72;;;;;;;11.80;73.72;100912.31;6154957;23;20021;-91
2023/10/05 04:57:12;;;;;;;9.82;4.28;;;;;;;11.82;73.64;100915.69;6156524;23;20021;-88
2023/10/05 04:59:58;;;;;;;9.77;3.97;;;;;;;11.83;74.03;100912.06;6206335;23;20048;-88
2023/10/05 05:07:57;;;;;;;10.75;4.22;;;;;;;11.85;74.96;100902.16;6159310;23;20027;-90
2023/10/05 05:10:24;;;;;;;12.85;4.70;;;;;;;11.84;74.52;100890.66;6180860;23;20337;-89
2023/10/05 05:12:50;;;;;;;13.00;4.53;;;;;;;11.87;74.55;100897.59;6155593;23;20699;-89
2023/10/05 05:15:17;;;;;;;12.18;4.32;;;;;;;11.88;74.53;100889.50;6205001;23;20079;-89
2023/10/05 05:17:44;;;;;;;12.10;5.20;;;;;;;11.87;74.30;100893.13;6155927;23;20021;-90
2023/10/05 05:20:15;;;;;;;9.80;4.32;;;;;;;11.85;74.43;100889.69;6167328;23;20055;-89
2023/10/05 05:22:46;;;;;;;8.80;4.38;;;;;;;11.86;74.06;100886.13;6179450;23;20028;-89
2023/10/05 05:25:15;;;;;;;9.90;4.35;;;;;;;11.85;74.30;100897.69;6130771;23;20441;-90
2023/10/05 05:27:45;;;;;;;9.98;4.13;;;;;;;11.85;74.47;100897.69;6154988;23;20024;-89
2023/10/05 05:30:24;;;;;;;10.77;4.18;;;;;;;11.84;74.85;100893.31;6154788;23;20055;-90
2023/10/05 05:32:53;;;;;;;7.13;4.32;;;;;;;11.86;74.83;100899.41;6157047;23;20021;-90
2023/10/05 05:35:20;;;;;;;8.45;3.72;;;;;;;11.82;75.08;100892.59;6205059;23;20463;-91
2023/10/05 05:37:47;;;;;;;7.43;4.25;;;;;;;11.82;75.09;100886.44;6180360;23;20475;-89
2023/10/05 05:40:16;;;;;;;7.22;3.60;;;;;;;11.82;75.34;100891.75;6131868;23;20024;-91
2023/10/05 05:42:46;;;;;;;7.78;4.47;;;;;;;11.81;74.99;100892.72;6178087;23;20028;-89
2023/10/05 05:45:16;;;;;;;8.13;4.68;;;;;;;11.80;75.26;100899.84;6180416;23;20024;-91
2023/10/05 05:47:47;;;;;;;8.85;4.13;;;;;;;11.78;75.24;100899.13;6155876;23;20425;-91
2023/10/05 05:50:18;;;;;;;9.35;4.68;;;;;;;11.80;75.47;100899.84;6179406;23;20020;-90
2023/10/05 05:52:46;;;;;;;10.60;4.35;;;;;;;11.80;75.42;100907.81;6178241;23;20017;-91
2023/10/05 05:55:17;;;;;;;7.60;4.32;;;;;;;11.82;75.16;100911.22;6203174;23;20020;-90
2023/10/05 05:57:44;;;;;;;8.20;4.07;;;;;;;11.78;75.64;100900.91;6179095;23;20027;-89
2023/10/05 06:00:12;;;;;;;7.65;4.05;;;;;;;11.81;75.93;100911.34;6154187;23;20029;-90
2023/10/05 06:02:43;;;;;;;10.00;4.38;;;;;;;11.80;75.82;100921.13;6154809;23;20021;-91
2023/10/05 06:05:10;;;;;;;8.55;4.32;;;;;;;11.78;76.10;100928.41;6180483;23;20024;-91
2023/10/05 06:07:39;;;;;;;10.15;4.00;;;;;;;11.79;76.13;100921.25;6179550;23;20021;-92
2023/10/05 06:10:13;;;;;;;7.53;3.88;;;;;;;11.74;76.54;100922.44;6131530;23;20099;-88
2023/10/05 06:12:43;;;;;;;9.77;4.68;;;;;;;11.77;76.45;100925.84;6204117;23;20092;-89
2023/10/05 06:15:13;;;;;;;10.25;4.68;;;;;;;11.77;76.56;100918.72;6178962;23;20024;-90
2023/10/05 06:17:41;;;;;;;8.98;4.43;;;;;;;11.77;76.93;100925.84;6164524;23;20330;-90
2023/10/05 06:20:14;;;;;;;9.05;5.75;;;;;;;11.81;77.09;100944.13;6179051;23;20028;-89
2023/10/05 06:22:45;;;;;;;8.07;3.85;;;;;;;11.73;76.92;100942.06;6204268;23;20040;-90
2023/10/05 06:25:15;;;;;;;10.13;4.60;;;;;;;11.80;76.78;100946.91;6204203;23;20027;-91
2023/10/05 06:27:47;;;;;;;9.73;5.03;;;;;;;11.81;77.03;100959.25;6180097;23;20440;-94
2023/10/05 06:30:14;;;;;;;10.82;4.55;;;;;;;11.80;77.03;100955.72;6204174;23;20100;-89
2023/10/05 06:32:44;;;;;;;7.93;4.15;;;;;;;11.84;76.83;100948.38;6153449;23;20048;-88
2023/10/05 06:35:11;;;;;;;11.60;5.15;;;;;;;11.81;76.93;100940.63;6179428;23;20017;-88
2023/10/05 06:37:39;;;;;;;10.02;4.72;;;;;;;11.81;77.00;100945.94;6180608;23;20013;-88
2023/10/05 06:40:12;;;;;;;12.68;4.28;;;;;;;11.81;76.72;100944.13;6154737;23;20017;-91
2023/10/05 06:42:41;;;;;;;9.63;4.18;;;;;;;11.81;76.76;100954.78;6155973;23;20013;-90
2023/10/05 06:45:11;;;;;;;10.13;4.68;;;;;;;11.83;76.74;100959.97;6130444;23;20029;-89
2023/10/05 06:47:38;;;;;;;9.80;4.53;;;;;;;11.82;76.97;100956.47;6153386;23;20028;-89
2023/10/05 06:50:08;;;;;;;8.85;4.05;;;;;;;11.85;76.77;100961.53;6179322;23;20020;-89
2023/10/05 06:52:36;;;;;;;8.45;4.55;;;;;;;11.86;77.00;100968.63;6178351;23;20021;-90
2023/10/05 06:55:07;;;;;;;7.53;4.47;;;;;;;11.88;76.89;100953.38;6202641;23;20029;-87
2023/10/05 06:57:37;;;;;;;10.02;5.00;;;;;;;11.89;76.93;100957.72;6177305;23;20047;-89
2023/10/05 07:00:11;;;;;;;11.63;5.13;;;;;;;11.89;77.47;100963.06;6204319;23;20032;-89
2023/10/05 07:02:39;;;;;;;9.25;4.85;;;;;;;11.93;77.08;100955.66;6176147;23;20047;-89
2023/10/05 07:05:07;;;;;;;8.40;4.45;;;;;;;12.00;77.05;100961.38;6153044;23;20055;-90
2023/10/05 07:07:35;;;;;;;7.70;4.75;;;;;;;12.00;77.01;100962.22;6175858;23;20017;-90
2023/10/05 07:10:06;;;;;;;11.60;4.88;;;;;;;11.98;76.98;100965.97;6162694;23;20080;-89
2023/10/05 07:12:48;;;;;;;8.43;4.22;;;;;;;12.01;77.40;100963.06;6129748;23;20087;-89
2023/10/05 07:15:21;;;;;;;9.45;4.22;;;;;;;11.97;77.32;100962.47;6149658;23;20595;-89
2023/10/05 07:17:48;;;;;;;12.75;5.18;;;;;;;11.96;77.79;100960.78;6177411;23;20427;-89
2023/10/05 07:20:19;;;;;;;9.93;4.68;;;;;;;12.00;77.43;100966.72;6202942;23;20067;-90
2023/10/05 07:22:47;;;;;;;10.30;4.80;;;;;;;12.02;77.80;100973.63;6177415;23;20325;-89
2023/10/05 07:25:14;;;;;;;10.55;5.35;;;;;;;12.04;78.23;100973.50;6154802;23;20021;-88
2023/10/05 07:27:42;;;;;;;9.63;5.97;;;;;;;12.11;77.61;100959.59;6179289;23;20020;-90
2023/10/05 07:30:12;;;;;;;9.73;5.82;;;;;;;12.15;77.73;100970.84;6155163;23;20099;-88
2023/10/05 07:32:39;;;;;;;12.88;6.07;;;;;;;12.16;78.37;100965.44;6154955;23;20016;-90
2023/10/05 07:35:07;;;;;;;13.43;6.30;;;;;;;12.27;78.41;100967.25;6155466;23;20039;-89
2023/10/05 07:37:35;;;;;;;10.90;6.15;;;;;;;12.31;78.57;100968.72;6178837;23;20111;-88
2023/10/05 07:40:09;;;;;;;7.28;4.50;;;;;;;12.37;78.39;100972.72;6179057;23;20043;-88
2023/10/05 07:42:39;;;;;;;7.40;4.68;;;;;;;12.41;78.37;100975.97;6180604;23;20032;-88
2023/10/05 07:45:07;;;;;;;8.75;5.47;;;;;;;12.46;78.48;100985.31;6179234;23;20028;-88
2023/10/05 07:47:43;;;;;;;7.43;4.70;;;;;;;12.47;78.75;100986.19;6153962;23;20173;-88
2023/10/05 07:50:10;;;;;;;10.73;5.57;;;;;;;12.50;78.76;100997.44;6154682;23;20024;-89
2023/10/05 07:52:38;;;;;;;7.93;4.95;;;;;;;12.55;78.59;100989.09;6179217;23;20039;-89
2023/10/05 07:55:06;;;;;;;9.45;4.82;;;;;;;12.57;78.78;100997.81;6154709;23;20020;-89
2023/10/05 07:57:33;;;;;;;9.75;5.25;;;;;;;12.57;79.07;100993.31;6154423;23;20067;-88
2023/10/05 08:00:01;;;;;;;7.32;4.85;;;;;;;12.58;79.24;100973.69;6154013;23;20020;-88
2023/10/05 08:02:38;;;;;;;7.68;5.30;;;;;;;12.61;79.38;100988.59;6202979;23;20021;-88
2023/10/05 08:05:05;;;;;;;9.80;5.93;;;;;;;12.61;79.42;100991.25;6178479;23;20329;-89
2023/10/05 08:07:32;;;;;;;9.30;5.20;;;;;;;12.62;79.29;101000.09;6177304;23;20017;-88
2023/10/05 08:09:59;;;;;;;8.65;5.57;;;;;;;12.59;79.85;100998.50;6179436;23;20078;-88
2023/10/05 08:12:27;;;;;;;8.60;5.68;;;;;;;12.62;79.69;101000.97;6155001;23;20017;-90
2023/10/05 08:14:54;;;;;;;6.82;4.97;;;;;;;12.62;79.81;100994.75;6153820;23;20021;-89
2023/10/05 08:17:21;;;;;;;10.30;5.95;;;;;;;12.60;80.10;101005.56;6153922;23;20028;-89
2023/10/05 08:19:48;;;;;;;8.77;5.82;;;;;;;12.62;80.07;100994.75;6179760;23;20068;-88
2023/10/05 08:22:18;;;;;;;9.10;5.68;;;;;;;12.65;80.04;100994.53;6178244;23;20140;-89
2023/10/05 08:24:45;;;;;;;9.13;5.70;;;;;;;12.71;80.05;100996.72;6179270;23;20016;-88
2023/10/05 08:27:14;;;;;;;10.88;5.68;;;;;;;12.77;79.85;101002.41;6153993;23;20032;-88
2023/10/05 08:29:42;;;;;;;11.25;6.00;;;;;;;12.76;79.85;100994.53;6179594;23;20519;-88
2023/10/05 08:32:16;;;;;;;7.13;5.15;;;;;;;12.82;79.89;101002.03;6154497;23;20028;-89
2023/10/05 08:34:45;;;;;;;9.43;5.80;;;;;;;12.87;79.93;100999.00;6130122;23;20015;-90
2023/10/05 08:37:13;;;;;;;13.13;6.07;;;;;;;12.87;79.80;101007.00;6179141;23;20531;-89
2023/10/05 08:39:40;;;;;;;9.55;5.22;;;;;;;12.90;79.87;100998.75;6154672;23;20028;-88
2023/10/05 08:42:07;;;;;;;8.77;5.03;;;;;;;12.96;79.89;101000.94;6202954;23;20024;-88
2023/10/05 08:44:43;;;;;;;8.60;5.57;;;;;;;13.00;79.77;100987.25;6178136;23;20078;-88
2023/10/05 08:47:12;;;;;;;11.55;5.18;;;;;;;13.05;79.34;100984.19;6177385;23;20021;-88
2023/10/05 08:49:43;;;;;;;8.57;5.20;;;;;;;13.05;79.66;100981.53;6178441;23;20039;-88
2023/10/05 08:52:18;;;;;;;8.20;5.68;;;;;;;13.08;79.70;100985.75;6153908;23;20027;-89
2023/10/05 08:54:46;;;;;;;9.90;5.35;;;;;;;13.10;79.91;100976.69;6177947;23;20103;-89
2023/10/05 08:57:14;;;;;;;9.95;5.60;;;;;;;13.13;79.85;100983.59;6153567;23;20024;-87
2023/10/05 08:59:45;;;;;;;7.55;5.45;;;;;;;13.14;79.78;100982.63;6153397;23;20040;-87
2023/10/05 09:02:18;;;;;;;8.13;5.07;;;;;;;13.16;80.27;100984.19;6179369;23;20066;-88
2023/10/05 09:04:58;;;;;;;8.88;4.82;;;;;;;13.20;80.34;100985.66;6178922;23;20028;-88
2023/10/05 09:07:38;;;;;;;12.70;5.35;;;;;;;13.22;80.67;100980.16;6179005;23;20020;-88
2023/10/05 09:10:08;;;;;;;10.18;5.45;;;;;;;13.28;80.66;100985.06;6180984;23;20024;-88
2023/10/05 09:12:36;;;;;;;8.80;4.05;;;;;;;13.30;81.01;100980.41;6154786;23;20314;-88
2023/10/05 09:15:05;;;;;;;8.52;4.53;;;;;;;13.37;81.06;100978.94;6153776;23;20028;-87
2023/10/05 09:17:34;;;;;;;17.15;5.45;;;;;;;13.40;81.03;100977.84;6178002;23;20666;-87
2023/10/05 09:20:23;;;;;;;9.07;4.60;;;;;;;13.41;81.68;100980.41;6154020;23;20091;-87
2023/10/05 09:22:53;;;;;;;10.15;4.57;;;;;;;13.51;81.18;100983.16;6176928;23;20487;-89
2023/10/05 09:25:26;;;;;;;9.85;4.22;;;;;;;13.56;81.28;100991.66;6178173;23;20066;-87
2023/10/05 09:27:56;;;;;;;8.27;4.05;;;;;;;13.60;80.93;100985.06;6152110;23;20032;-87
2023/10/05 09:30:23;;;;;;;6.65;3.92;;;;;;;13.64;81.36;100973.16;6154172;23;20017;-88
2023/10/05 09:33:06;;;;;;;7.63;3.75;;;;;;;13.64;81.68;100975.00;6178033;23;20079;-87
2023/10/05 09:35:33;;;;;;;8.75;4.15;;;;;;;13.72;81.44;100977.88;6128539;23;20042;-88
2023/10/05 09:38:00;;;;;;;11.88;4.05;;;;;;;13.75;81.12;100985.59;6177796;23;20103;-87
2023/10/05 09:40:28;;;;;;;7.75;3.53;;;;;;;13.78;81.44;100987.19;6153294;23;20077;-87
2023/10/05 09:42:56;;;;;;;8.75;3.67;;;;;;;13.83;81.51;100979.63;6202597;23;20615;-86
2023/10/05 09:45:25;;;;;;;10.90;4.38;;;;;;;13.87;81.26;100981.06;6153072;23;20078;-87
2023/10/05 09:47:53;;;;;;;12.00;4.28;;;;;;;13.89;81.46;100989.78;6152073;23;20024;-87
2023/10/05 09:50:22;;;;;;;8.13;3.83;;;;;;;13.89;81.45;100992.44;6177553;23;20025;-86
2023/10/05 09:52:49;;;;;;;8.80;3.40;;;;;;;13.92;81.53;100986.88;6152735;23;20353;-87
2023/10/05 09:55:19;;;;;;;8.48;3.80;;;;;;;13.95;81.74;100986.63;6177598;23;20349;-88
2023/10/05 09:57:46;;;;;;;7.63;3.30;;;;;;;13.98;81.89;100991.69;6129241;23;20016;-87
2023/10/05 10:03:01;;;;;;;7.28;3.35;;;;;;;14.06;81.71;100991.88;6180572;23;20025;-87
2023/10/05 10:05:33;;;;;;;8.18;4.18;;;;;;;14.10;82.07;100990.66;6179622;23;20692;-88
2023/10/05 10:08:09;;;;;;;5.30;3.20;;;;;;;14.13;82.00;100978.88;6180040;23;21004;-87
2023/10/05 10:10:43;;;;;;;10.80;3.78;;;;;;;14.20;80.76;100979.19;6153376;23;20079;-87
2023/10/05 10:13:14;;;;;;;11.00;3.28;;;;;;;14.26;80.44;100976.81;6177435;23;20032;-87
2023/10/05 10:15:46;;;;;;;10.73;3.75;;;;;;;14.31;80.24;100971.94;6177386;23;20683;-87
2023/10/05 10:18:14;;;;;;;9.95;3.63;;;;;;;14.38;79.97;100974.09;6154942;23;20017;-86
2023/10/05 10:20:51;;;;;;;8.65;3.20;;;;;;;14.37;79.14;100973.22;6153450;23;20088;-87
2023/10/05 10:23:22;;;;;;;13.63;3.80;;;;;;;14.42;79.01;100976.34;6177651;23;20055;-86
2023/10/05 10:25:52;;;;;;;9.43;3.40;;;;;;;14.46;79.14;100971.59;6178084;23;20021;-86
2023/10/05 10:31:18;;;;;;;12.40;3.55;;;;;;;14.49;78.37;100974.84;6157841;23;20157;-87
2023/10/05 10:33:54;;;;;;;14.65;4.03;;;;;;;14.53;78.25;100968.28;6177245;23;20044;-87
2023/10/05 10:36:47;;;;;;;16.70;4.57;;;;;;;14.51;77.76;100978.22;6154695;23;20017;-86
2023/10/05 10:39:24;;;;;;;13.88;3.95;;;;;;;14.59;77.86;100979.44;6201210;23;20028;-87
2023/10/05 10:42:12;;;;;;;10.07;3.90;;;;;;;14.59;77.86;100977.59;6178091;23;20028;-87
2023/10/05 10:47:16;;;;;;;14.48;4.18;;;;;;;14.61;77.67;100977.47;6202400;23;20677;-87
2023/10/05 10:50:52;;;;;;;10.23;3.88;;;;;;;14.57;77.39;100981.38;6201769;23;20025;-87
2023/10/05 10:52:55;;;;;;;13.10;3.60;;;;;;;14.62;77.94;100979.16;6187070;23;20025;-86
2023/10/05 10:55:30;;;;;;;14.45;4.35;;;;;;;14.62;77.72;100971.13;6180002;23;20100;-87
2023/10/05 10:58:04;;;;;;;10.43;3.50;;;;;;;14.68;77.57;100970.59;6155594;23;20009;-87
2023/10/05 11:03:17;;;;;;;9.55;3.50;;;;;;;14.73;77.44;100969.22;6205971;23;20033;-87
2023/10/05 11:05:48;;;;;;;10.55;3.72;;;;;;;14.76;77.22;100970.78;6154094;23;20013;-87
2023/10/05 11:08:21;;;;;;;8.77;3.33;;;;;;;14.76;77.15;100963.59;6179622;23;20036;-86
2023/10/05 11:10:54;;;;;;;10.75;3.65;;;;;;;14.78;77.14;100968.78;6131868;23;20044;-87
2023/10/05 11:13:21;;;;;;;11.48;4.00;;;;;;;14.83;77.44;100963.06;6208130;23;20028;-87
2023/10/05 11:15:59;;;;;;;17.52;4.50;;;;;;;14.82;77.45;100967.56;6155803;23;20024;-86
2023/10/05 11:18:39;;;;;;;10.88;3.85;;;;;;;14.81;76.98;100963.22;6181883;23;20021;-86
2023/10/05 11:21:24;;;;;;;13.18;3.78;;;;;;;14.85;77.05;100961.94;6180561;23;20032;-86
2023/10/05 11:23:58;;;;;;;9.23;3.85;;;;;;;14.84;77.10;100960.25;6157467;23;20025;-86
2023/10/05 11:29:15;;;;;;;12.48;3.70;;;;;;;14.85;76.23;100961.09;6180722;23;20026;-86
2023/10/05 11:31:42;;;;;;;8.60;3.25;;;;;;;14.84;75.97;100957.56;6205063;23;20410;-87
2023/10/05 11:34:29;;;;;;;11.40;3.47;;;;;;;14.85;76.17;100969.13;6184161;23;20024;-86
2023/10/05 11:37:18;;;;;;;9.38;3.80;;;;;;;14.85;76.20;100964.59;6183390;23;20024;-87
2023/10/05 11:39:49;;;;;;;14.75;3.88;;;;;;;14.87;75.75;100962.66;6156903;23;20460;-87
2023/10/05 11:42:24;;;;;;;16.33;3.95;;;;;;;14.86;75.68;100958.28;6205656;23;20047;-87
2023/10/05 11:44:59;;;;;;;10.40;3.47;;;;;;;14.88;75.33;100950.13;6204553;23;20024;-87
2023/10/05 11:47:35;;;;;;;7.93;3.30;;;;;;;14.90;76.09;100958.84;6132205;23;20075;-86
2023/10/05 11:50:07;;;;;;;10.43;3.90;;;;;;;14.93;76.07;100967.47;6154714;23;20021;-87
2023/10/05 11:52:38;;;;;;;11.25;3.70;;;;;;;14.94;75.57;100965.63;6179438;23;20025;-87
2023/10/05 11:55:14;;;;;;;10.57;3.67;;;;;;;14.94;74.93;100963.81;6180506;23;20083;-87
2023/10/05 11:57:42;;;;;;;12.07;3.88;;;;;;;14.92;74.75;100973.78;6131354;23;20036;-87
2023/10/05 12:00:13;;;;;;;15.15;3.95;;;;;;;14.92;74.53;100975.63;6155240;23;20392;-86
2023/10/05 12:02:40;;;;;;;9.98;3.05;;;;;;;14.90;74.77;100969.56;6155521;23;20013;-86
2023/10/05 12:05:07;;;;;;;18.67;3.55;;;;;;;14.90;74.41;100969.56;6154932;23;20075;-87
2023/10/05 12:07:38;;;;;;;10.60;3.20;;;;;;;14.90;74.10;100964.22;6204260;23;20048;-87
2023/10/05 12:10:09;;;;;;;14.02;4.10;;;;;;;14.89;73.90;100970.56;6179024;23;20030;-88
2023/10/05 12:12:41;;;;;;;11.25;3.47;;;;;;;14.88;74.26;100979.53;6155795;23;20024;-87
2023/10/05 12:15:12;;;;;;;15.25;4.30;;;;;;;14.84;73.92;100976.31;6179349;23;20036;-88
2023/10/05 12:17:40;;;;;;;12.65;3.17;;;;;;;14.84;73.72;100962.09;6203977;23;20427;-87
2023/10/05 12:20:08;;;;;;;14.30;3.95;;;;;;;14.82;73.89;100961.38;6204252;23;20043;-87
2023/10/05 12:22:37;;;;;;;12.40;3.65;;;;;;;14.80;74.20;100964.16;6178063;23;20170;-87
2023/10/05 12:25:07;;;;;;;14.43;3.63;;;;;;;14.80;74.00;100969.50;6156526;23;20314;-89
2023/10/05 12:27:35;;;;;;;14.23;4.05;;;;;;;14.81;74.49;100973.03;6180172;23;20021;-87
2023/10/05 12:30:11;;;;;;;13.05;3.72;;;;;;;14.80;74.20;100974.88;6205433;23;20388;-87
2023/10/05 12:32:38;;;;;;;12.98;3.05;;;;;;;14.80;74.44;100971.34;6179301;23;20112;-86
2023/10/05 12:35:13;;;;;;;12.55;2.95;;;;;;;14.78;74.49;100968.78;6179087;23;20437;-86
2023/10/05 12:37:41;;;;;;;9.15;3.42;;;;;;;14.79;74.72;100965.16;6178811;23;20023;-87
2023/10/05 12:40:18;;;;;;;12.18;3.88;;;;;;;14.78;74.62;100952.75;6179463;23;20043;-87
2023/10/05 12:42:53;;;;;;;7.13;3.00;;;;;;;14.77;74.96;100943.91;6180792;23;20021;-87
2023/10/05 12:45:42;;;;;;;12.25;3.92;;;;;;;14.76;74.96;100939.53;6204242;23;20100;-87
2023/10/05 12:48:11;;;;;;;12.10;3.85;;;;;;;14.77;75.06;100964.44;6179908;23;20102;-88
2023/10/05 12:50:39;;;;;;;8.43;3.38;;;;;;;14.78;75.33;100942.06;6155425;23;20075;-85
2023/10/05 12:53:07;;;;;;;10.68;3.10;;;;;;;14.76;75.62;100931.53;6203914;23;20090;-86